Time;durP1;ratioP1;P1;durP2;ratioP2;P2;SDS_P1;SDS_P2;PMS_P1;PMS_P2;Temp;Humidity;BMP_temperature;BMP_pressure;BME280_temperature;BME280_humidity;BME280_pressure;Samples;Min_cycle;Max_cycle;Signal;HPM_P1;HPM_P2
2023/01/09 00:01:03;;;;;;;10.93;3.38;;;;;;;;;;5101306;27;20107;-66
2023/01/09 00:03:29;;;;;;;7.05;2.22;;;;;;;;;;5100212;27;20540;-66
2023/01/09 00:05:55;;;;;;;8.80;2.47;;;;;;;;;;5095495;27;20750;-66
2023/01/09 00:08:21;;;;;;;10.80;3.40;;;;;;;;;;5101272;27;20122;-66
2023/01/09 00:10:49;;;;;;;9.68;2.78;;;;;;;;;;5101015;27;20036;-66
2023/01/09 00:13:16;;;;;;;12.98;2.72;;;;;;;;;;5101764;27;20050;-66
2023/01/09 00:15:43;;;;;;;11.90;2.85;;;;;;;;;;5095132;28;20127;-66
2023/01/09 00:18:09;;;;;;;7.80;2.75;;;;;;;;;;5095289;27;20044;-66
2023/01/09 00:20:36;;;;;;;9.10;2.47;;;;;;;;;;5099869;28;20120;-66
2023/01/09 00:23:02;;;;;;;11.70;3.30;;;;;;;;;;5096116;27;20038;-66
2023/01/09 00:25:28;;;;;;;9.73;3.30;;;;;;;;;;5074504;28;20079;-66
2023/01/09 00:27:54;;;;;;;7.85;2.38;;;;;;;;;;5099848;27;20056;-66
2023/01/09 00:30:20;;;;;;;9.38;2.80;;;;;;;;;;5096798;27;20043;-66
2023/01/09 00:32:46;;;;;;;11.43;2.90;;;;;;;;;;5100642;28;20079;-66
2023/01/09 00:35:14;;;;;;;10.13;2.53;;;;;;;;;;5100666;27;20105;-66
2023/01/09 00:37:40;;;;;;;9.80;2.47;;;;;;;;;;5100463;28;20039;-66
2023/01/09 00:40:07;;;;;;;13.27;2.80;;;;;;;;;;5094917;27;20043;-66
2023/01/09 00:42:35;;;;;;;7.60;2.47;;;;;;;;;;5095332;27;20064;-66
2023/01/09 00:45:04;;;;;;;11.60;2.53;;;;;;;;;;5100310;27;20051;-66
2023/01/09 00:47:39;;;;;;;8.05;2.22;;;;;;;;;;5100046;27;20040;-66
2023/01/09 00:50:08;;;;;;;10.55;3.05;;;;;;;;;;5100473;27;20043;-67
2023/01/09 00:52:34;;;;;;;4.68;2.20;;;;;;;;;;5099694;27;20039;-66
2023/01/09 00:55:02;;;;;;;10.40;2.67;;;;;;;;;;5100814;27;20058;-66
2023/01/09 00:57:28;;;;;;;6.97;2.47;;;;;;;;;;5100709;27;20256;-66
2023/01/09 00:59:54;;;;;;;7.05;2.08;;;;;;;;;;5099454;27;20181;-67
2023/01/09 01:02:20;;;;;;;8.75;2.45;;;;;;;;;;5099806;28;20086;-66
2023/01/09 01:07:48;;;;;;;6.63;2.53;;;;;;;;;;5100798;28;20139;-66
2023/01/09 01:10:19;;;;;;;9.30;2.70;;;;;;;;;;5099492;27;20047;-66
2023/01/09 01:12:46;;;;;;;8.15;2.47;;;;;;;;;;5095936;28;21497;-66
2023/01/09 01:15:13;;;;;;;10.57;2.78;;;;;;;;;;5100780;27;20031;-66
2023/01/09 01:17:40;;;;;;;9.88;2.83;;;;;;;;;;5096119;27;20055;-66
2023/01/09 01:20:07;;;;;;;8.15;2.67;;;;;;;;;;5100455;27;21263;-66
2023/01/09 01:22:33;;;;;;;8.70;3.10;;;;;;;;;;5098359;27;20123;-66
2023/01/09 01:24:59;;;;;;;8.30;2.50;;;;;;;;;;5100277;27;20437;-66
2023/01/09 01:27:26;;;;;;;16.42;2.97;;;;;;;;;;5101786;27;20042;-66
2023/01/09 01:29:53;;;;;;;12.68;3.17;;;;;;;;;;5101217;27;21652;-66
2023/01/09 01:32:19;;;;;;;9.45;2.78;;;;;;;;;;5097098;28;20104;-66
2023/01/09 01:34:45;;;;;;;10.07;2.63;;;;;;;;;;5095803;27;20066;-66
2023/01/09 01:37:11;;;;;;;13.40;2.95;;;;;;;;;;5097547;27;20122;-66
2023/01/09 01:39:37;;;;;;;10.65;2.75;;;;;;;;;;5100343;27;20070;-66
2023/01/09 01:42:04;;;;;;;10.75;2.65;;;;;;;;;;5103225;27;20081;-66
2023/01/09 01:44:49;;;;;;;8.32;2.78;;;;;;;;;;5111111;27;20124;-66
2023/01/09 01:47:17;;;;;;;16.10;3.08;;;;;;;;;;5106973;27;20126;-66
2023/01/09 01:49:43;;;;;;;10.73;2.85;;;;;;;;;;5106132;27;20062;-66
2023/01/09 01:52:09;;;;;;;11.15;3.05;;;;;;;;;;5110445;27;20096;-66
2023/01/09 01:54:36;;;;;;;12.43;2.67;;;;;;;;;;5107404;27;20483;-66
2023/01/09 01:57:03;;;;;;;12.73;3.53;;;;;;;;;;5108356;27;20044;-66
2023/01/09 01:59:33;;;;;;;11.63;2.58;;;;;;;;;;5092328;27;20039;-66
2023/01/09 02:02:00;;;;;;;11.32;2.60;;;;;;;;;;5105398;27;20120;-65
2023/01/09 02:04:28;;;;;;;11.00;2.42;;;;;;;;;;5107533;27;20070;-66
2023/01/09 02:06:55;;;;;;;15.52;2.63;;;;;;;;;;5106842;27;20054;-66
2023/01/09 02:09:24;;;;;;;9.25;2.60;;;;;;;;;;5105816;27;20039;-67
2023/01/09 02:11:51;;;;;;;14.85;2.40;;;;;;;;;;5092667;27;20100;-66
2023/01/09 02:14:19;;;;;;;12.95;2.65;;;;;;;;;;5090823;27;20081;-66
2023/01/09 02:16:55;;;;;;;15.15;2.63;;;;;;;;;;5101740;27;20122;-66
2023/01/09 02:19:21;;;;;;;13.35;1.95;;;;;;;;;;5102590;27;20068;-67
2023/01/09 02:21:50;;;;;;;11.98;2.20;;;;;;;;;;5085831;27;20050;-66
2023/01/09 02:24:27;;;;;;;13.35;2.63;;;;;;;;;;5089816;27;20114;-66
2023/01/09 02:27:12;;;;;;;9.68;1.88;;;;;;;;;;5100253;27;20132;-66
2023/01/09 02:29:44;;;;;;;12.52;2.92;;;;;;;;;;5103932;27;20442;-66
2023/01/09 02:32:29;;;;;;;8.18;1.85;;;;;;;;;;5086654;28;20087;-66
2023/01/09 02:35:02;;;;;;;13.60;2.03;;;;;;;;;;5103737;27;20579;-66
2023/01/09 02:37:36;;;;;;;10.73;2.40;;;;;;;;;;5086632;28;20047;-66
2023/01/09 02:40:08;;;;;;;5.88;1.98;;;;;;;;;;5102510;27;20043;-66
2023/01/09 02:42:35;;;;;;;13.55;3.22;;;;;;;;;;5056110;28;20140;-66
2023/01/09 02:45:01;;;;;;;11.45;2.47;;;;;;;;;;5059172;28;20039;-66
2023/01/09 02:47:28;;;;;;;12.13;2.65;;;;;;;;;;5079428;28;21315;-65
2023/01/09 02:49:59;;;;;;;11.23;3.30;;;;;;;;;;5059701;28;20507;-66
2023/01/09 02:52:49;;;;;;;13.43;3.22;;;;;;;;;;5058915;28;20478;-66
2023/01/09 02:55:17;;;;;;;13.18;2.95;;;;;;;;;;5078826;28;20040;-65
2023/01/09 02:57:53;;;;;;;14.57;3.42;;;;;;;;;;5078446;28;20403;-66
2023/01/09 03:00:25;;;;;;;18.38;3.97;;;;;;;;;;5077926;28;20075;-65
2023/01/09 03:02:56;;;;;;;9.48;2.83;;;;;;;;;;5061196;28;20103;-65
2023/01/09 03:05:41;;;;;;;14.27;3.47;;;;;;;;;;5058217;28;21018;-66
2023/01/09 03:08:10;;;;;;;11.20;3.10;;;;;;;;;;5077695;28;20044;-66
2023/01/09 03:10:40;;;;;;;14.57;3.25;;;;;;;;;;5078379;28;20082;-66
2023/01/09 03:13:07;;;;;;;19.25;4.78;;;;;;;;;;5062485;28;20180;-66
2023/01/09 03:15:35;;;;;;;15.02;3.60;;;;;;;;;;5076981;28;20115;-66
2023/01/09 03:18:03;;;;;;;13.45;2.97;;;;;;;;;;5060582;28;20113;-66
2023/01/09 03:20:30;;;;;;;18.27;3.30;;;;;;;;;;5080361;28;20443;-66
2023/01/09 03:22:58;;;;;;;17.95;3.58;;;;;;;;;;5077267;28;20185;-66
2023/01/09 03:25:25;;;;;;;16.73;3.42;;;;;;;;;;5078544;28;20116;-66
2023/01/09 03:27:54;;;;;;;14.90;3.42;;;;;;;;;;5073461;28;20081;-66
2023/01/09 03:30:21;;;;;;;11.10;3.05;;;;;;;;;;5077601;28;20044;-66
2023/01/09 03:32:47;;;;;;;10.02;2.92;;;;;;;;;;5078871;28;20471;-66
2023/01/09 03:35:13;;;;;;;16.88;2.95;;;;;;;;;;5059322;28;20494;-66
2023/01/09 03:37:39;;;;;;;12.50;3.03;;;;;;;;;;5061029;28;20080;-66
2023/01/09 03:40:05;;;;;;;13.45;3.22;;;;;;;;;;5081025;28;20043;-66
2023/01/09 03:42:32;;;;;;;19.25;2.90;;;;;;;;;;5099553;28;20101;-66
2023/01/09 03:44:58;;;;;;;15.35;3.08;;;;;;;;;;5099583;28;20139;-66
2023/01/09 03:47:24;;;;;;;12.80;3.03;;;;;;;;;;5093133;28;21705;-66
2023/01/09 03:49:50;;;;;;;13.00;3.53;;;;;;;;;;5099361;28;20043;-66
2023/01/09 03:52:16;;;;;;;11.25;3.20;;;;;;;;;;5099655;28;20138;-66
2023/01/09 03:54:42;;;;;;;11.93;2.92;;;;;;;;;;5090587;28;20047;-66
2023/01/09 03:57:08;;;;;;;21.52;4.30;;;;;;;;;;5099491;28;20081;-66
2023/01/09 03:59:35;;;;;;;10.63;3.60;;;;;;;;;;5103621;28;20684;-66
2023/01/09 04:02:01;;;;;;;13.98;3.80;;;;;;;;;;5100840;27;20127;-66
2023/01/09 04:04:27;;;;;;;16.90;3.83;;;;;;;;;;5097846;28;20067;-66
2023/01/09 04:06:53;;;;;;;15.02;3.92;;;;;;;;;;5098730;28;20040;-66
2023/01/09 04:09:19;;;;;;;8.93;3.50;;;;;;;;;;5094313;28;20056;-66
2023/01/09 04:11:45;;;;;;;18.20;4.50;;;;;;;;;;5092031;28;20058;-66
2023/01/09 04:14:11;;;;;;;12.30;3.70;;;;;;;;;;5094133;28;20052;-66
2023/01/09 04:16:37;;;;;;;13.70;4.15;;;;;;;;;;5103007;28;20043;-66
2023/01/09 04:19:04;;;;;;;9.63;3.58;;;;;;;;;;5099537;28;20126;-66
2023/01/09 04:21:30;;;;;;;11.25;4.05;;;;;;;;;;5098435;27;20047;-66
2023/01/09 04:23:56;;;;;;;10.95;4.10;;;;;;;;;;5097721;27;20040;-66
2023/01/09 04:26:22;;;;;;;10.52;4.40;;;;;;;;;;5101375;27;20054;-66
2023/01/09 04:28:48;;;;;;;15.90;4.00;;;;;;;;;;5101263;27;20640;-65
2023/01/09 04:31:14;;;;;;;11.25;4.25;;;;;;;;;;5102330;28;20519;-66
2023/01/09 04:33:41;;;;;;;19.70;4.78;;;;;;;;;;5103002;27;20036;-66
2023/01/09 04:36:07;;;;;;;17.98;4.70;;;;;;;;;;5102705;28;20044;-66
2023/01/09 04:38:33;;;;;;;13.50;5.03;;;;;;;;;;5104853;27;20466;-66
2023/01/09 04:40:59;;;;;;;18.50;5.55;;;;;;;;;;5104569;28;20415;-66
2023/01/09 04:43:25;;;;;;;13.32;4.88;;;;;;;;;;5106784;27;20129;-66
2023/01/09 04:45:51;;;;;;;18.52;5.93;;;;;;;;;;5104774;27;20067;-66
2023/01/09 04:48:18;;;;;;;14.45;4.75;;;;;;;;;;5104385;27;20047;-66
2023/01/09 04:50:44;;;;;;;16.17;4.88;;;;;;;;;;5106218;28;20042;-66
2023/01/09 04:53:10;;;;;;;16.95;5.00;;;;;;;;;;5104716;27;20073;-65
2023/01/09 04:55:36;;;;;;;12.15;5.10;;;;;;;;;;5104348;27;20036;-66
2023/01/09 04:58:02;;;;;;;14.05;5.43;;;;;;;;;;5102050;27;20082;-66
2023/01/09 05:00:29;;;;;;;16.42;4.90;;;;;;;;;;5102032;27;20043;-66
2023/01/09 05:02:56;;;;;;;12.77;4.93;;;;;;;;;;5100140;28;20075;-66
2023/01/09 05:05:22;;;;;;;15.35;5.43;;;;;;;;;;5101588;27;20051;-66
2023/01/09 05:07:48;;;;;;;16.40;5.57;;;;;;;;;;5099587;27;20036;-66
2023/01/09 05:10:14;;;;;;;14.48;6.05;;;;;;;;;;5097636;27;20131;-66
2023/01/09 05:12:40;;;;;;;20.52;5.88;;;;;;;;;;5082293;28;20075;-66
2023/01/09 05:15:07;;;;;;;13.50;5.65;;;;;;;;;;5094766;28;20044;-66
2023/01/09 05:17:33;;;;;;;16.75;5.20;;;;;;;;;;5107866;28;20096;-66
2023/01/09 05:19:59;;;;;;;18.52;6.43;;;;;;;;;;5095262;28;20449;-66
2023/01/09 05:22:26;;;;;;;13.77;6.18;;;;;;;;;;5092104;28;20050;-66
2023/01/09 05:24:52;;;;;;;20.15;6.53;;;;;;;;;;5096245;28;20077;-66
2023/01/09 05:27:18;;;;;;;17.60;6.82;;;;;;;;;;5104826;27;20050;-66
2023/01/09 05:29:45;;;;;;;22.38;7.45;;;;;;;;;;5093737;28;20058;-66
2023/01/09 05:32:11;;;;;;;13.30;6.07;;;;;;;;;;5098764;28;20043;-67
2023/01/09 05:34:37;;;;;;;17.13;6.78;;;;;;;;;;5103617;28;20401;-66
2023/01/09 05:37:03;;;;;;;21.35;6.95;;;;;;;;;;5091648;28;20059;-66
2023/01/09 05:39:29;;;;;;;20.85;6.80;;;;;;;;;;5106821;28;20035;-66
2023/01/09 05:41:55;;;;;;;48.15;9.43;;;;;;;;;;5084383;28;20078;-66
2023/01/09 05:44:21;;;;;;;15.57;7.28;;;;;;;;;;5106947;28;20130;-66
2023/01/09 05:46:47;;;;;;;16.92;7.47;;;;;;;;;;5102466;27;20483;-67
2023/01/09 05:49:14;;;;;;;22.33;8.32;;;;;;;;;;5103371;28;20043;-66
2023/01/09 05:51:40;;;;;;;17.35;8.18;;;;;;;;;;5105299;28;20028;-66
2023/01/09 05:54:06;;;;;;;20.38;8.30;;;;;;;;;;5106167;28;20075;-66
2023/01/09 05:56:32;;;;;;;16.48;8.13;;;;;;;;;;5104431;28;20035;-67
2023/01/09 05:58:58;;;;;;;16.80;8.48;;;;;;;;;;5095396;28;21273;-66
2023/01/09 06:01:24;;;;;;;21.98;9.65;;;;;;;;;;5094138;27;21059;-66
2023/01/09 06:03:51;;;;;;;18.42;9.07;;;;;;;;;;5094345;28;20369;-66
2023/01/09 06:06:17;;;;;;;20.52;8.60;;;;;;;;;;5105340;28;20036;-67
2023/01/09 06:08:43;;;;;;;21.25;10.45;;;;;;;;;;5105326;27;20192;-67
2023/01/09 06:11:09;;;;;;;15.88;10.23;;;;;;;;;;5105236;28;20202;-66
2023/01/09 06:13:35;;;;;;;22.77;10.63;;;;;;;;;;5104092;28;20043;-66
2023/01/09 06:16:01;;;;;;;22.75;11.35;;;;;;;;;;5103746;27;20046;-66
2023/01/09 06:18:27;;;;;;;23.67;11.70;;;;;;;;;;5090795;28;20050;-66
2023/01/09 06:20:54;;;;;;;26.85;13.85;;;;;;;;;;5102860;27;20067;-66
2023/01/09 06:23:20;;;;;;;23.48;11.90;;;;;;;;;;5099643;28;20047;-66
2023/01/09 06:25:46;;;;;;;25.90;13.00;;;;;;;;;;5101063;28;20467;-66
2023/01/09 06:28:12;;;;;;;21.95;12.90;;;;;;;;;;5105363;28;20424;-66
2023/01/09 06:30:38;;;;;;;25.20;14.25;;;;;;;;;;5105252;28;20410;-66
2023/01/09 06:33:04;;;;;;;23.05;14.27;;;;;;;;;;5107265;27;20097;-66
2023/01/09 06:35:31;;;;;;;27.02;14.38;;;;;;;;;;5095040;28;20036;-66
2023/01/09 06:38:00;;;;;;;27.13;15.60;;;;;;;;;;5102892;28;20592;-66
2023/01/09 06:40:26;;;;;;;31.83;16.10;;;;;;;;;;5104945;28;20628;-66
2023/01/09 06:42:52;;;;;;;28.23;16.33;;;;;;;;;;5106310;28;20039;-66
2023/01/09 06:45:18;;;;;;;29.00;16.35;;;;;;;;;;5105613;28;20039;-66
2023/01/09 06:47:44;;;;;;;29.58;17.08;;;;;;;;;;5104957;28;20073;-67
2023/01/09 06:50:11;;;;;;;31.17;17.45;;;;;;;;;;5107773;28;20071;-66
2023/01/09 06:52:37;;;;;;;31.08;16.90;;;;;;;;;;5096426;28;20071;-66
2023/01/09 06:55:04;;;;;;;31.85;16.50;;;;;;;;;;5106962;28;20039;-66
2023/01/09 06:57:30;;;;;;;27.83;16.73;;;;;;;;;;5103547;28;20445;-66
2023/01/09 06:59:56;;;;;;;27.85;17.33;;;;;;;;;;5102551;28;20039;-66
2023/01/09 07:02:22;;;;;;;25.67;15.70;;;;;;;;;;5098310;28;20044;-66
2023/01/09 07:04:49;;;;;;;27.65;17.70;;;;;;;;;;5102148;28;20046;-66
2023/01/09 07:07:15;;;;;;;24.52;16.33;;;;;;;;;;5097680;28;20658;-66
2023/01/09 07:09:41;;;;;;;26.88;17.17;;;;;;;;;;5102316;28;20047;-66
2023/01/09 07:12:08;;;;;;;29.13;17.70;;;;;;;;;;5100935;28;20070;-66
2023/01/09 07:14:34;;;;;;;27.75;16.13;;;;;;;;;;5102722;28;20092;-80
2023/01/09 07:17:00;;;;;;;27.17;17.30;;;;;;;;;;5101917;28;20591;-66
2023/01/09 07:19:26;;;;;;;25.55;15.80;;;;;;;;;;5105223;28;20042;-67
2023/01/09 07:21:52;;;;;;;30.27;17.20;;;;;;;;;;5103833;28;20556;-66
2023/01/09 07:24:18;;;;;;;32.35;16.60;;;;;;;;;;5105759;28;20137;-71
2023/01/09 07:26:45;;;;;;;35.00;17.80;;;;;;;;;;5104521;28;20051;-66
2023/01/09 07:29:11;;;;;;;31.50;17.55;;;;;;;;;;5103609;28;20047;-66
2023/01/09 07:31:38;;;;;;;28.98;17.10;;;;;;;;;;5107195;28;20096;-66
2023/01/09 07:34:04;;;;;;;24.63;15.75;;;;;;;;;;5108699;28;20054;-67
2023/01/09 07:36:30;;;;;;;29.60;16.75;;;;;;;;;;5110291;28;20047;-67
2023/01/09 07:38:56;;;;;;;25.67;16.60;;;;;;;;;;5100071;28;20047;-66
2023/01/09 07:41:22;;;;;;;29.40;16.60;;;;;;;;;;5107000;28;20127;-66
2023/01/09 07:43:48;;;;;;;24.42;15.48;;;;;;;;;;5111352;28;20047;-66
2023/01/09 07:46:14;;;;;;;28.08;17.10;;;;;;;;;;5105552;28;20768;-66
2023/01/09 07:48:41;;;;;;;27.10;15.27;;;;;;;;;;5109567;28;20395;-66
2023/01/09 07:51:09;;;;;;;28.27;15.27;;;;;;;;;;5110173;28;20091;-66
2023/01/09 07:53:35;;;;;;;20.90;13.63;;;;;;;;;;5111081;28;20043;-66
2023/01/09 07:56:01;;;;;;;29.25;14.95;;;;;;;;;;5109172;28;20046;-66
2023/01/09 07:58:27;;;;;;;27.83;14.70;;;;;;;;;;5108733;28;20443;-66
2023/01/09 08:00:53;;;;;;;23.15;14.43;;;;;;;;;;5107193;28;20043;-66
2023/01/09 08:03:19;;;;;;;25.52;13.70;;;;;;;;;;5102963;28;20116;-67
2023/01/09 08:05:46;;;;;;;31.88;13.60;;;;;;;;;;5107341;28;20063;-69
2023/01/09 08:08:13;;;;;;;26.75;13.32;;;;;;;;;;5106387;28;20047;-66
2023/01/09 08:10:39;;;;;;;23.13;12.93;;;;;;;;;;5108252;28;20055;-66
2023/01/09 08:13:06;;;;;;;19.45;12.15;;;;;;;;;;5109401;28;20039;-66
2023/01/09 08:15:32;;;;;;;23.63;12.98;;;;;;;;;;5107570;28;20081;-67
2023/01/09 08:17:58;;;;;;;21.40;11.90;;;;;;;;;;5106598;28;20047;-66
2023/01/09 08:20:26;;;;;;;25.23;12.98;;;;;;;;;;5099713;28;20394;-67
2023/01/09 08:22:53;;;;;;;24.02;11.57;;;;;;;;;;5107205;28;20128;-66
2023/01/09 08:25:19;;;;;;;20.35;12.38;;;;;;;;;;5105639;28;20356;-66
2023/01/09 08:27:46;;;;;;;24.10;11.43;;;;;;;;;;5106625;28;20386;-66
2023/01/09 08:30:12;;;;;;;17.98;10.40;;;;;;;;;;5106405;28;20040;-67
2023/01/09 08:32:38;;;;;;;20.52;11.02;;;;;;;;;;5106604;28;20035;-66
2023/01/09 08:35:05;;;;;;;22.23;10.32;;;;;;;;;;5106843;28;20044;-66
2023/01/09 08:37:31;;;;;;;22.33;11.02;;;;;;;;;;5105022;28;20488;-66
2023/01/09 08:39:57;;;;;;;24.02;10.75;;;;;;;;;;5107534;28;20041;-66
2023/01/09 08:47:55;;;;;;;19.05;9.90;;;;;;;;;;5106203;28;20063;-66
2023/01/09 08:50:21;;;;;;;17.42;10.18;;;;;;;;;;5110034;28;20363;-66
2023/01/09 08:52:47;;;;;;;21.88;9.88;;;;;;;;;;5108001;28;21101;-66
2023/01/09 08:55:13;;;;;;;18.60;9.90;;;;;;;;;;5107973;28;20042;-66
2023/01/09 08:57:47;;;;;;;17.25;8.60;;;;;;;;;;5107921;28;20388;-66
2023/01/09 09:00:15;;;;;;;23.38;10.82;;;;;;;;;;5097605;28;20047;-66
2023/01/09 09:02:41;;;;;;;19.83;9.63;;;;;;;;;;5099741;28;20506;-66
2023/01/09 09:05:07;;;;;;;12.98;8.93;;;;;;;;;;5108849;28;20083;-66
2023/01/09 09:07:33;;;;;;;17.42;8.55;;;;;;;;;;5100862;28;20047;-66
2023/01/09 09:10:00;;;;;;;16.48;8.57;;;;;;;;;;5099404;28;20035;-66
2023/01/09 09:12:26;;;;;;;21.17;9.40;;;;;;;;;;5108683;28;20105;-66
2023/01/09 09:17:37;;;;;;;20.85;11.18;;;;;;;;;;5108273;28;20720;-66
2023/01/09 09:20:03;;;;;;;21.25;9.95;;;;;;;;;;5106758;28;20042;-66
2023/01/09 09:22:30;;;;;;;21.42;10.98;;;;;;;;;;5107640;28;20043;-66
2023/01/09 09:24:56;;;;;;;18.85;9.93;;;;;;;;;;5108541;28;20051;-66
2023/01/09 09:27:22;;;;;;;19.63;9.40;;;;;;;;;;5099089;28;20040;-66
2023/01/09 09:29:48;;;;;;;22.95;10.60;;;;;;;;;;5107579;28;20163;-65
2023/01/09 09:32:15;;;;;;;18.80;10.35;;;;;;;;;;5107282;28;20100;-66
2023/01/09 09:34:41;;;;;;;21.20;11.05;;;;;;;;;;5106607;28;20531;-66
2023/01/09 09:37:07;;;;;;;17.83;9.00;;;;;;;;;;5105622;28;20043;-66
2023/01/09 09:39:33;;;;;;;17.10;8.85;;;;;;;;;;5108199;28;20479;-66
2023/01/09 09:45:05;;;;;;;28.45;9.52;;;;;;;;;;5096236;28;20079;-66
2023/01/09 09:47:42;;;;;;;14.30;8.82;;;;;;;;;;5098918;28;20145;-66
2023/01/09 09:50:15;;;;;;;18.35;9.18;;;;;;;;;;5102248;28;20056;-66
2023/01/09 09:52:49;;;;;;;16.27;8.27;;;;;;;;;;5107438;28;20130;-66
2023/01/09 09:55:23;;;;;;;16.85;8.57;;;;;;;;;;5104950;28;20036;-66
2023/01/09 09:57:50;;;;;;;13.73;8.32;;;;;;;;;;5105183;28;20489;-66
2023/01/09 10:00:19;;;;;;;14.85;7.80;;;;;;;;;;5105492;28;20401;-66
2023/01/09 10:02:49;;;;;;;17.70;7.80;;;;;;;;;;5094722;28;20208;-66
2023/01/09 10:05:20;;;;;;;13.20;7.32;;;;;;;;;;5094477;28;20048;-66
2023/01/09 10:07:50;;;;;;;14.35;7.95;;;;;;;;;;5106620;28;20079;-66
2023/01/09 10:10:21;;;;;;;15.80;8.98;;;;;;;;;;5107244;28;20529;-66
2023/01/09 10:12:52;;;;;;;13.85;7.38;;;;;;;;;;5107819;28;20050;-66
2023/01/09 10:15:23;;;;;;;13.30;7.30;;;;;;;;;;5107887;28;20088;-66
2023/01/09 10:17:58;;;;;;;13.20;7.90;;;;;;;;;;5092849;28;20047;-66
2023/01/09 10:20:26;;;;;;;17.30;7.28;;;;;;;;;;5094043;28;20047;-66
2023/01/09 10:22:56;;;;;;;15.75;6.93;;;;;;;;;;5107917;28;20100;-66
2023/01/09 10:25:22;;;;;;;15.10;7.13;;;;;;;;;;5107380;28;20046;-66
2023/01/09 10:27:48;;;;;;;17.90;7.90;;;;;;;;;;5107733;28;20798;-66
2023/01/09 10:30:15;;;;;;;21.42;8.35;;;;;;;;;;5107197;28;20514;-65
2023/01/09 10:32:41;;;;;;;12.23;7.30;;;;;;;;;;5107772;28;20049;-65
2023/01/09 10:35:26;;;;;;;19.42;8.20;;;;;;;;;;5098361;28;20149;-66
2023/01/09 10:37:52;;;;;;;18.13;8.32;;;;;;;;;;5097654;28;20044;-66
2023/01/09 10:40:50;;;;;;;18.33;7.95;;;;;;;;;;5099535;28;20040;-65
2023/01/09 10:43:16;;;;;;;15.98;7.85;;;;;;;;;;5100248;28;20039;-65
2023/01/09 10:45:49;;;;;;;17.38;7.68;;;;;;;;;;5104129;28;20035;-65
2023/01/09 10:48:26;;;;;;;14.43;7.78;;;;;;;;;;5103991;28;20046;-65
2023/01/09 10:50:54;;;;;;;10.77;7.07;;;;;;;;;;5101943;28;20438;-64
2023/01/09 10:53:22;;;;;;;13.68;7.82;;;;;;;;;;5099575;28;20039;-65
2023/01/09 10:55:49;;;;;;;23.40;8.07;;;;;;;;;;5106351;28;20119;-65
2023/01/09 10:58:17;;;;;;;13.70;6.88;;;;;;;;;;5106194;28;20476;-65
2023/01/09 11:00:44;;;;;;;16.42;7.75;;;;;;;;;;5106867;28;20074;-65
2023/01/09 11:03:12;;;;;;;17.20;7.40;;;;;;;;;;5098190;28;20043;-65
2023/01/09 11:05:38;;;;;;;10.35;7.15;;;;;;;;;;5109140;28;20177;-65
2023/01/09 11:08:10;;;;;;;15.48;7.93;;;;;;;;;;5110681;28;20043;-65
2023/01/09 11:10:46;;;;;;;14.88;7.45;;;;;;;;;;5110582;28;20737;-65
2023/01/09 11:13:21;;;;;;;16.98;8.13;;;;;;;;;;5101777;28;20039;-65
2023/01/09 11:16:06;;;;;;;14.80;7.05;;;;;;;;;;5109507;28;20136;-65
2023/01/09 11:18:34;;;;;;;17.85;8.30;;;;;;;;;;5109825;28;20040;-65
2023/01/09 11:21:27;;;;;;;16.20;8.82;;;;;;;;;;5110632;28;20096;-65
2023/01/09 11:23:54;;;;;;;19.15;8.07;;;;;;;;;;5109727;28;20036;-65
2023/01/09 11:26:21;;;;;;;16.67;8.50;;;;;;;;;;5099447;28;20039;-65
2023/01/09 11:29:04;;;;;;;13.60;8.35;;;;;;;;;;5103288;28;20123;-65
2023/01/09 11:31:30;;;;;;;19.38;8.82;;;;;;;;;;5107789;28;20046;-65
2023/01/09 11:33:56;;;;;;;18.27;8.63;;;;;;;;;;5108838;28;20052;-65
2023/01/09 11:36:24;;;;;;;16.23;8.40;;;;;;;;;;5102236;28;20581;-65
2023/01/09 11:38:57;;;;;;;16.60;8.23;;;;;;;;;;5109815;28;20035;-65
2023/01/09 11:41:25;;;;;;;17.97;8.63;;;;;;;;;;5097963;28;20376;-65
2023/01/09 11:43:54;;;;;;;21.85;8.90;;;;;;;;;;5088725;28;20302;-65
2023/01/09 11:46:34;;;;;;;13.32;7.95;;;;;;;;;;5090112;28;20052;-65
2023/01/09 11:49:01;;;;;;;13.38;7.53;;;;;;;;;;5087989;28;20075;-65
2023/01/09 11:51:28;;;;;;;17.27;7.65;;;;;;;;;;5089946;28;20051;-65
2023/01/09 11:53:54;;;;;;;16.95;8.63;;;;;;;;;;5089998;28;20036;-65
2023/01/09 11:56:20;;;;;;;14.52;8.27;;;;;;;;;;5088607;28;20109;-65
2023/01/09 11:58:46;;;;;;;16.98;9.43;;;;;;;;;;5090276;28;20078;-65
2023/01/09 12:01:31;;;;;;;16.05;9.85;;;;;;;;;;5087352;28;20510;-65
2023/01/09 12:04:16;;;;;;;17.02;8.95;;;;;;;;;;5069721;28;20076;-65
2023/01/09 12:06:49;;;;;;;18.70;9.20;;;;;;;;;;5089929;28;20054;-65
2023/01/09 12:09:20;;;;;;;19.02;9.32;;;;;;;;;;5088892;28;20487;-65
2023/01/09 12:11:52;;;;;;;16.85;9.02;;;;;;;;;;5089917;28;20391;-65
2023/01/09 12:14:24;;;;;;;16.95;9.20;;;;;;;;;;5088695;28;20036;-65
2023/01/09 12:16:51;;;;;;;19.30;9.98;;;;;;;;;;5087039;28;20067;-65
2023/01/09 12:19:20;;;;;;;18.90;10.50;;;;;;;;;;5088836;28;20044;-65
2023/01/09 12:22:00;;;;;;;15.90;10.10;;;;;;;;;;5071098;28;20071;-65
2023/01/09 12:24:37;;;;;;;17.60;9.88;;;;;;;;;;5089245;28;20072;-65
2023/01/09 12:27:05;;;;;;;23.80;10.68;;;;;;;;;;5088934;28;20075;-65
2023/01/09 12:29:58;;;;;;;19.83;10.55;;;;;;;;;;5087951;28;20047;-65
2023/01/09 12:32:27;;;;;;;22.00;11.60;;;;;;;;;;5069953;28;20404;-65
2023/01/09 12:35:05;;;;;;;17.63;10.88;;;;;;;;;;5086203;28;20040;-65
2023/01/09 12:37:54;;;;;;;23.63;10.98;;;;;;;;;;5085026;28;20040;-65
2023/01/09 12:40:29;;;;;;;20.85;11.27;;;;;;;;;;5086811;28;20043;-65
2023/01/09 12:43:09;;;;;;;22.17;12.07;;;;;;;;;;5106255;28;20487;-65
2023/01/09 12:45:46;;;;;;;15.57;10.43;;;;;;;;;;5106743;28;20035;-65
2023/01/09 12:48:27;;;;;;;15.20;9.82;;;;;;;;;;5107221;28;20550;-65
2023/01/09 12:51:02;;;;;;;15.75;10.60;;;;;;;;;;5105696;28;20063;-65
2023/01/09 12:53:33;;;;;;;17.90;11.02;;;;;;;;;;5107334;28;20062;-65
2023/01/09 12:56:09;;;;;;;14.70;9.93;;;;;;;;;;5106863;28;20051;-65
2023/01/09 12:58:44;;;;;;;19.40;9.27;;;;;;;;;;5092224;28;20036;-65
2023/01/09 13:01:14;;;;;;;17.48;9.98;;;;;;;;;;5092601;28;20051;-65
2023/01/09 13:03:43;;;;;;;15.32;9.55;;;;;;;;;;5104817;28;20035;-65
2023/01/09 13:06:12;;;;;;;19.10;9.77;;;;;;;;;;5105877;28;20040;-65
2023/01/09 13:08:40;;;;;;;16.17;9.82;;;;;;;;;;5106283;28;20047;-65
2023/01/09 13:11:15;;;;;;;14.75;10.00;;;;;;;;;;5097527;28;20047;-65
2023/01/09 13:13:46;;;;;;;15.98;9.80;;;;;;;;;;5091360;28;20050;-65
2023/01/09 13:16:15;;;;;;;15.57;9.32;;;;;;;;;;5105704;28;20047;-65
2023/01/09 13:18:44;;;;;;;14.98;8.88;;;;;;;;;;5106437;28;20063;-65
2023/01/09 13:21:12;;;;;;;12.82;8.73;;;;;;;;;;5107102;28;20078;-65
2023/01/09 13:23:48;;;;;;;15.38;8.98;;;;;;;;;;5107101;28;20111;-65
2023/01/09 13:26:16;;;;;;;16.98;9.05;;;;;;;;;;5106899;28;20131;-65
2023/01/09 13:28:47;;;;;;;16.23;8.40;;;;;;;;;;5106568;28;20157;-65
2023/01/09 13:31:26;;;;;;;19.58;8.23;;;;;;;;;;5106413;28;20035;-65
2023/01/09 13:33:53;;;;;;;19.38;5.05;;;;;;;;;;5105889;28;20540;-65
2023/01/09 13:36:24;;;;;;;16.02;4.78;;;;;;;;;;5104829;28;20039;-65
2023/01/09 13:38:50;;;;;;;19.63;4.35;;;;;;;;;;5105728;28;20046;-65
2023/01/09 13:44:04;;;;;;;13.68;3.33;;;;;;;;;;5093173;28;20088;-65
2023/01/09 13:46:39;;;;;;;18.83;3.20;;;;;;;;;;5103381;28;20053;-64
2023/01/09 13:49:07;;;;;;;10.27;3.08;;;;;;;;;;5103622;28;20148;-64
2023/01/09 13:51:36;;;;;;;13.52;3.08;;;;;;;;;;5102687;28;20083;-65
2023/01/09 13:54:02;;;;;;;17.63;2.78;;;;;;;;;;5106138;28;20043;-65
2023/01/09 13:56:28;;;;;;;15.27;3.17;;;;;;;;;;5104818;28;20679;-65
2023/01/09 13:58:55;;;;;;;16.95;3.28;;;;;;;;;;5091002;28;20173;-65
2023/01/09 14:01:34;;;;;;;22.45;3.50;;;;;;;;;;5104730;28;20082;-64
2023/01/09 14:04:20;;;;;;;18.83;3.90;;;;;;;;;;5093455;28;20423;-65
2023/01/09 14:07:19;;;;;;;14.68;3.20;;;;;;;;;;5105165;28;20103;-64
2023/01/09 14:09:46;;;;;;;7.65;2.65;;;;;;;;;;5101714;27;20040;-64
2023/01/09 14:12:14;;;;;;;20.35;3.28;;;;;;;;;;5105569;28;20037;-67
2023/01/09 14:14:44;;;;;;;11.98;2.95;;;;;;;;;;5094209;28;20043;-67
2023/01/09 14:17:18;;;;;;;15.50;3.25;;;;;;;;;;5105289;28;20051;-66
2023/01/09 14:19:44;;;;;;;;;;;;;;;;;;5105312;28;21874;-66
2023/01/09 14:22:27;;;;;;;20.67;4.15;;;;;;;;;;5105437;28;19931;-66
2023/01/09 14:24:55;;;;;;;17.63;2.97;;;;;;;;;;5106747;28;20043;-66
2023/01/09 14:27:40;;;;;;;22.52;4.07;;;;;;;;;;5104405;28;20043;-66
2023/01/09 14:30:34;;;;;;;22.92;3.80;;;;;;;;;;5106322;28;20039;-66
2023/01/09 14:33:24;;;;;;;19.08;4.53;;;;;;;;;;5104852;28;20124;-66
2023/01/09 14:35:54;;;;;;;29.45;6.43;;;;;;;;;;5097973;28;20063;-66
2023/01/09 14:38:20;;;;;;;27.35;4.03;;;;;;;;;;5104028;28;20083;-66
2023/01/09 14:40:50;;;;;;;17.45;3.80;;;;;;;;;;5094783;28;20512;-66
2023/01/09 14:43:23;;;;;;;13.32;3.70;;;;;;;;;;5092117;28;20667;-66
2023/01/09 14:45:50;;;;;;;13.40;3.45;;;;;;;;;;5105360;28;20364;-66
2023/01/09 14:48:17;;;;;;;14.95;2.95;;;;;;;;;;5102433;28;20043;-66
2023/01/09 14:50:49;;;;;;;17.63;4.47;;;;;;;;;;5102637;28;20084;-66
2023/01/09 14:53:21;;;;;;;20.33;4.35;;;;;;;;;;5095818;28;20664;-66
2023/01/09 14:55:50;;;;;;;17.90;3.65;;;;;;;;;;5105319;28;20391;-66